Time;durP1;ratioP1;P1;durP2;ratioP2;P2;SDS_P1;SDS_P2;PMS_P1;PMS_P2;Temp;Humidity;BMP_temperature;BMP_pressure;BME280_temperature;BME280_humidity;BME280_pressure;Samples;Min_cycle;Max_cycle;Signal;HPM_P1;HPM_P2
2023/06/04 00:00:43;;;;;;;7.57;4.00;;;10.90;99.90;;;;;;5073818;28;20488;-60
2023/06/04 00:03:08;;;;;;;8.45;3.78;;;10.90;99.90;;;;;;5092612;28;20036;-60
2023/06/04 00:05:34;;;;;;;11.77;3.95;;;10.90;99.90;;;;;;5092071;28;20036;-60
2023/06/04 00:08:00;;;;;;;7.05;3.42;;;10.80;99.90;;;;;;5091730;28;20040;-60
2023/06/04 00:10:25;;;;;;;8.85;3.88;;;10.80;99.90;;;;;;5092654;28;20508;-60
2023/06/04 00:12:51;;;;;;;8.40;3.67;;;10.80;99.90;;;;;;5091150;28;20766;-60
2023/06/04 00:15:17;;;;;;;9.02;3.92;;;10.80;99.90;;;;;;5109689;28;20529;-60
2023/06/04 00:17:43;;;;;;;12.52;3.90;;;10.80;99.90;;;;;;5112858;28;20499;-60
2023/06/04 00:20:09;;;;;;;6.55;3.05;;;10.80;99.90;;;;;;5110691;28;20082;-60
2023/06/04 00:22:35;;;;;;;8.50;4.03;;;10.80;99.90;;;;;;5111858;28;20096;-60
2023/06/04 00:25:00;;;;;;;9.32;3.95;;;10.80;99.90;;;;;;5112460;28;20031;-60
2023/06/04 00:27:26;;;;;;;6.57;4.38;;;10.80;99.90;;;;;;5110506;28;20043;-60
2023/06/04 00:29:52;;;;;;;12.82;4.03;;;10.80;99.90;;;;;;5111115;28;20044;-60
2023/06/04 00:32:18;;;;;;;8.73;3.58;;;10.80;99.90;;;;;;5111357;28;20085;-60
2023/06/04 00:34:49;;;;;;;7.45;3.63;;;10.80;99.90;;;;;;5110388;28;20043;-60
2023/06/04 00:37:15;;;;;;;8.77;3.38;;;10.80;99.90;;;;;;5112749;28;20119;-60
2023/06/04 00:39:40;;;;;;;7.32;3.35;;;10.70;99.90;;;;;;5112784;28;20123;-60
2023/06/04 00:42:06;;;;;;;9.32;3.65;;;10.70;99.90;;;;;;5112217;28;20039;-60
2023/06/04 00:44:33;;;;;;;7.25;3.90;;;10.80;99.90;;;;;;5112212;28;20051;-60
2023/06/04 00:47:00;;;;;;;9.60;3.58;;;10.70;99.90;;;;;;5112184;28;20039;-60
2023/06/04 00:49:26;;;;;;;7.38;3.28;;;10.70;99.90;;;;;;5110448;28;20557;-59
2023/06/04 00:51:52;;;;;;;8.38;3.15;;;10.70;99.90;;;;;;5112635;28;20071;-59
2023/06/04 00:54:20;;;;;;;8.77;3.38;;;10.60;99.90;;;;;;5112410;28;20500;-59
2023/06/04 00:56:47;;;;;;;10.23;3.80;;;10.60;99.90;;;;;;5111195;28;20119;-60
2023/06/04 00:59:13;;;;;;;6.65;3.78;;;10.50;99.90;;;;;;5110944;28;20519;-60
2023/06/04 01:01:53;;;;;;;6.68;3.30;;;10.50;99.90;;;;;;5112138;28;20040;-60
2023/06/04 01:04:27;;;;;;;10.68;3.97;;;10.50;99.90;;;;;;5111050;28;20040;-60
2023/06/04 01:06:54;;;;;;;7.28;3.75;;;10.50;99.90;;;;;;5094260;28;20040;-60
2023/06/04 01:09:20;;;;;;;10.25;3.92;;;10.50;99.90;;;;;;5090004;28;20138;-60
2023/06/04 01:11:46;;;;;;;8.00;3.15;;;10.50;99.90;;;;;;5091494;28;20527;-60
2023/06/04 01:14:12;;;;;;;7.40;3.55;;;10.40;99.90;;;;;;5090567;28;20079;-60
2023/06/04 01:17:03;;;;;;;7.78;3.83;;;10.40;99.90;;;;;;5091539;28;20369;-60
2023/06/04 01:19:41;;;;;;;9.05;3.65;;;10.40;99.90;;;;;;5090710;28;20562;-59
2023/06/04 01:22:20;;;;;;;7.15;3.22;;;10.30;99.90;;;;;;5092179;28;20043;-60
2023/06/04 01:24:55;;;;;;;6.85;3.05;;;10.20;99.90;;;;;;5092067;28;20044;-59
2023/06/04 01:27:21;;;;;;;12.02;3.55;;;10.10;99.90;;;;;;5095704;28;20400;-60
2023/06/04 01:29:49;;;;;;;7.90;3.28;;;10.10;99.90;;;;;;5094790;28;20047;-60
2023/06/04 01:32:16;;;;;;;7.70;3.17;;;10.10;99.90;;;;;;5093709;28;20085;-60
2023/06/04 01:34:46;;;;;;;7.25;3.40;;;10.10;99.90;;;;;;5095553;28;20134;-60
2023/06/04 01:37:12;;;;;;;9.50;3.17;;;10.10;99.90;;;;;;5093813;28;20059;-60
2023/06/04 01:39:38;;;;;;;10.95;3.42;;;10.00;99.90;;;;;;5094441;28;20048;-60
2023/06/04 01:42:04;;;;;;;8.00;2.78;;;10.00;99.90;;;;;;5094794;28;20100;-59
2023/06/04 01:44:30;;;;;;;5.78;2.45;;;10.00;99.90;;;;;;5093436;28;20040;-60
2023/06/04 01:46:55;;;;;;;7.93;3.90;;;9.90;99.90;;;;;;5077162;28;20423;-60
2023/06/04 01:49:21;;;;;;;8.50;3.17;;;9.90;99.90;;;;;;5094440;28;20048;-60
2023/06/04 01:51:46;;;;;;;6.13;2.75;;;9.90;99.90;;;;;;5094429;28;20032;-60
2023/06/04 01:54:12;;;;;;;9.20;3.30;;;9.90;99.90;;;;;;5095195;28;20036;-60
2023/06/04 01:56:38;;;;;;;7.00;3.17;;;9.80;99.90;;;;;;5095227;28;20048;-60
2023/06/04 01:59:04;;;;;;;8.00;3.30;;;9.80;99.90;;;;;;5093561;28;20381;-60
2023/06/04 02:01:29;;;;;;;7.57;3.50;;;9.80;99.90;;;;;;5093936;28;20093;-60
2023/06/04 02:03:55;;;;;;;8.07;2.83;;;9.90;99.90;;;;;;5094846;28;20040;-60
2023/06/04 02:06:21;;;;;;;9.75;3.67;;;9.80;99.90;;;;;;5094238;28;20040;-60
2023/06/04 02:08:46;;;;;;;7.10;2.83;;;9.80;99.90;;;;;;5095030;28;20089;-60
2023/06/04 02:11:12;;;;;;;7.68;2.80;;;9.80;99.90;;;;;;5093655;28;20049;-60
2023/06/04 02:13:38;;;;;;;6.40;2.80;;;9.70;99.90;;;;;;5093886;28;20090;-60
2023/06/04 02:16:04;;;;;;;8.15;3.35;;;9.60;99.90;;;;;;5095184;28;20450;-60
2023/06/04 02:18:30;;;;;;;6.30;2.97;;;9.60;99.90;;;;;;5093707;28;20127;-60
2023/06/04 02:20:57;;;;;;;7.40;3.58;;;9.60;99.90;;;;;;5093858;28;20036;-60
2023/06/04 02:23:23;;;;;;;6.28;3.25;;;9.50;99.90;;;;;;5093649;28;20047;-60
2023/06/04 02:25:49;;;;;;;5.95;2.83;;;9.50;99.90;;;;;;5094598;28;20044;-60
2023/06/04 02:28:15;;;;;;;6.07;2.90;;;9.50;99.90;;;;;;5092595;28;20508;-60
2023/06/04 02:30:41;;;;;;;8.75;3.25;;;9.50;99.90;;;;;;5094577;28;20434;-60
2023/06/04 02:33:09;;;;;;;7.13;3.40;;;9.50;99.90;;;;;;5093819;28;20570;-60
2023/06/04 02:35:35;;;;;;;9.95;3.47;;;9.40;99.90;;;;;;5102655;28;20055;-60
2023/06/04 02:38:01;;;;;;;5.90;2.70;;;9.40;99.90;;;;;;5113619;28;20035;-61
2023/06/04 02:40:27;;;;;;;5.93;2.78;;;9.40;99.90;;;;;;5113920;28;20132;-63
2023/06/04 02:42:54;;;;;;;7.40;3.35;;;9.40;99.90;;;;;;5113371;28;20488;-61
2023/06/04 02:45:20;;;;;;;6.28;3.35;;;9.30;99.90;;;;;;5106157;28;20040;-61
2023/06/04 02:47:46;;;;;;;9.43;3.65;;;9.30;99.90;;;;;;5093365;28;20115;-61
2023/06/04 02:50:12;;;;;;;6.97;3.55;;;9.30;99.90;;;;;;5092928;28;20123;-61
2023/06/04 02:52:39;;;;;;;9.57;3.92;;;9.30;99.90;;;;;;5092768;28;20051;-61
2023/06/04 02:55:06;;;;;;;6.90;3.45;;;9.20;99.90;;;;;;5092482;28;20089;-61
2023/06/04 02:57:32;;;;;;;8.68;3.55;;;9.20;99.90;;;;;;5094085;28;20055;-60
2023/06/04 02:59:59;;;;;;;7.72;3.38;;;9.20;99.90;;;;;;5094062;28;20105;-60
2023/06/04 03:02:25;;;;;;;6.80;3.03;;;9.20;99.90;;;;;;5092982;28;20039;-60
2023/06/04 03:04:52;;;;;;;9.55;3.90;;;9.20;99.90;;;;;;5092497;28;20121;-60
2023/06/04 03:07:22;;;;;;;8.10;3.97;;;9.20;99.90;;;;;;5093928;28;20051;-60
2023/06/04 03:09:48;;;;;;;7.53;4.00;;;9.20;99.90;;;;;;5091902;28;20044;-60
2023/06/04 03:12:14;;;;;;;8.25;3.78;;;9.10;99.90;;;;;;5093652;28;20082;-60
2023/06/04 03:14:40;;;;;;;9.85;3.53;;;9.10;99.90;;;;;;5092287;28;20048;-60
2023/06/04 03:17:10;;;;;;;9.68;3.90;;;9.10;99.90;;;;;;5093027;28;20119;-60
2023/06/04 03:19:40;;;;;;;9.50;4.18;;;9.10;99.90;;;;;;5094052;28;20062;-60
2023/06/04 03:22:06;;;;;;;8.15;3.55;;;9.10;99.90;;;;;;5092767;28;20067;-60
2023/06/04 03:24:37;;;;;;;7.03;3.88;;;9.10;99.90;;;;;;5092492;28;20086;-60
2023/06/04 03:27:04;;;;;;;8.30;3.50;;;9.10;99.90;;;;;;5092501;28;20055;-60
2023/06/04 03:29:30;;;;;;;8.45;4.80;;;9.00;99.90;;;;;;5091577;28;20044;-60
2023/06/04 03:31:56;;;;;;;8.13;4.53;;;9.00;99.90;;;;;;5092188;28;20763;-60
2023/06/04 03:34:24;;;;;;;9.85;5.28;;;9.00;99.90;;;;;;5075146;28;20054;-60
2023/06/04 03:36:54;;;;;;;11.40;5.57;;;9.00;99.90;;;;;;5091014;28;20063;-60
2023/06/04 03:39:20;;;;;;;11.50;6.00;;;9.00;99.90;;;;;;5093313;28;20433;-60
2023/06/04 03:41:46;;;;;;;11.38;6.40;;;9.10;99.90;;;;;;5092000;28;20050;-60
2023/06/04 03:44:16;;;;;;;14.73;6.13;;;9.10;99.90;;;;;;5091024;28;20044;-61
2023/06/04 03:46:43;;;;;;;8.82;5.80;;;9.10;99.90;;;;;;5093120;28;20109;-60
2023/06/04 03:49:13;;;;;;;11.10;6.07;;;9.00;99.90;;;;;;5091152;28;20036;-61
2023/06/04 03:51:39;;;;;;;8.95;6.30;;;9.10;99.90;;;;;;5090790;28;20050;-60
2023/06/04 03:54:05;;;;;;;12.07;6.43;;;9.10;99.90;;;;;;5092184;28;20048;-60
2023/06/04 03:56:31;;;;;;;8.55;4.80;;;9.10;99.90;;;;;;5074625;28;20036;-60
2023/06/04 03:58:57;;;;;;;7.28;4.47;;;9.10;99.90;;;;;;5091999;28;20047;-61
2023/06/04 04:01:23;;;;;;;9.60;6.35;;;9.10;99.90;;;;;;5091483;28;20040;-60
2023/06/04 04:03:50;;;;;;;9.27;5.47;;;9.20;99.90;;;;;;5074882;28;20079;-60
2023/06/04 04:06:17;;;;;;;10.65;5.53;;;9.20;99.90;;;;;;5091974;28;20040;-61
2023/06/04 04:08:43;;;;;;;9.52;5.43;;;9.20;99.90;;;;;;5091734;28;20437;-60
2023/06/04 04:11:13;;;;;;;7.57;4.50;;;9.30;99.90;;;;;;5092639;28;20072;-61
2023/06/04 04:13:39;;;;;;;8.23;5.20;;;9.30;99.90;;;;;;5091748;28;20052;-60
2023/06/04 04:16:05;;;;;;;8.07;4.80;;;9.40;99.90;;;;;;5091423;28;20059;-60
2023/06/04 04:18:34;;;;;;;9.00;4.88;;;9.40;99.90;;;;;;5092516;28;20040;-60
2023/06/04 04:21:00;;;;;;;8.23;5.70;;;9.40;99.90;;;;;;5090803;28;20464;-61
2023/06/04 04:23:27;;;;;;;7.05;4.40;;;9.50;99.90;;;;;;5092340;28;20072;-60
2023/06/04 04:25:53;;;;;;;9.38;5.55;;;9.50;99.90;;;;;;5073480;28;20427;-61
2023/06/04 04:28:28;;;;;;;10.57;5.68;;;9.60;99.90;;;;;;5074347;28;20111;-60
2023/06/04 04:30:57;;;;;;;;;;;9.70;99.90;;;;;;5091562;28;20047;-60
2023/06/04 04:33:24;;;;;;;9.90;6.57;;;9.70;99.90;;;;;;5091476;28;20304;-61
2023/06/04 04:35:50;;;;;;;10.68;5.75;;;9.80;99.90;;;;;;5090984;28;20055;-60
2023/06/04 04:38:17;;;;;;;9.55;5.30;;;9.90;99.90;;;;;;5091115;28;20047;-61
2023/06/04 04:40:43;;;;;;;10.75;6.40;;;9.90;99.90;;;;;;5091535;28;20043;-60
2023/06/04 04:43:09;;;;;;;8.43;5.18;;;10.10;99.90;;;;;;5091153;28;20044;-61
2023/06/04 04:45:34;;;;;;;8.63;5.30;;;10.10;99.90;;;;;;5092316;28;20089;-61
2023/06/04 04:48:00;;;;;;;10.50;6.07;;;10.20;99.90;;;;;;5091343;28;20036;-61
2023/06/04 04:50:26;;;;;;;12.18;5.90;;;10.30;99.90;;;;;;5092118;28;20043;-61
2023/06/04 04:52:51;;;;;;;8.77;5.38;;;10.40;99.90;;;;;;5091915;28;20401;-60
2023/06/04 04:55:17;;;;;;;12.05;5.18;;;10.50;99.90;;;;;;5091388;28;20473;-61
2023/06/04 04:57:43;;;;;;;11.60;5.70;;;10.70;99.90;;;;;;5091917;28;20114;-61
2023/06/04 05:00:09;;;;;;;11.57;5.63;;;10.80;99.90;;;;;;5096939;28;20032;-61
2023/06/04 05:02:36;;;;;;;13.40;6.47;;;10.90;99.90;;;;;;5102311;28;20083;-61
2023/06/04 05:05:03;;;;;;;10.90;6.05;;;11.10;99.90;;;;;;5102750;28;20044;-61
2023/06/04 05:07:28;;;;;;;7.38;4.68;;;11.10;99.90;;;;;;5079279;28;20563;-60
2023/06/04 05:09:54;;;;;;;9.80;5.85;;;11.30;99.90;;;;;;5099520;28;20115;-60
2023/06/04 05:12:20;;;;;;;12.82;5.30;;;11.40;99.90;;;;;;5102986;28;20508;-61
2023/06/04 05:14:46;;;;;;;9.88;5.68;;;11.50;99.90;;;;;;5120741;27;20553;-61
2023/06/04 05:17:12;;;;;;;11.88;5.80;;;11.60;99.90;;;;;;5109318;28;20036;-61
2023/06/04 05:19:38;;;;;;;9.30;5.30;;;11.70;99.90;;;;;;5113062;28;20400;-61
2023/06/04 05:22:05;;;;;;;7.85;5.20;;;11.90;99.90;;;;;;5113677;28;20039;-61
2023/06/04 05:24:32;;;;;;;12.65;6.90;;;12.00;99.90;;;;;;5100610;28;20043;-61
2023/06/04 05:26:58;;;;;;;11.52;5.75;;;12.10;99.90;;;;;;5107954;27;20079;-60
2023/06/04 05:29:24;;;;;;;10.73;6.22;;;12.20;99.90;;;;;;5098677;27;20080;-61
2023/06/04 05:31:50;;;;;;;12.52;6.70;;;12.40;99.90;;;;;;5114610;27;20043;-61
2023/06/04 05:34:16;;;;;;;12.73;6.50;;;12.50;99.90;;;;;;5108192;28;20104;-61
2023/06/04 05:36:45;;;;;;;8.05;5.20;;;12.60;99.90;;;;;;5100258;28;20043;-62
2023/06/04 05:39:11;;;;;;;10.02;5.60;;;12.80;99.90;;;;;;5109049;28;20381;-62
2023/06/04 05:41:37;;;;;;;11.20;5.95;;;12.80;99.90;;;;;;5100087;28;20055;-62
2023/06/04 05:44:03;;;;;;;14.52;5.80;;;12.90;99.90;;;;;;5093066;28;20043;-61
2023/06/04 05:46:31;;;;;;;12.05;4.60;;;13.00;99.90;;;;;;5100375;28;20040;-61
2023/06/04 05:48:57;;;;;;;11.70;4.97;;;13.20;99.90;;;;;;5092906;28;20377;-61
2023/06/04 05:51:23;;;;;;;10.93;5.18;;;13.30;99.90;;;;;;5096937;28;20563;-62
2023/06/04 05:53:48;;;;;;;16.35;4.60;;;13.30;99.90;;;;;;5099194;28;20040;-62
2023/06/04 05:56:14;;;;;;;10.05;3.97;;;13.40;99.90;;;;;;5101612;28;20405;-61
2023/06/04 05:58:41;;;;;;;8.70;3.83;;;13.50;99.90;;;;;;5114287;28;20415;-61
2023/06/04 06:01:07;;;;;;;11.25;3.88;;;13.50;99.90;;;;;;5097154;28;20052;-61
2023/06/04 06:03:32;;;;;;;8.90;3.58;;;13.60;99.90;;;;;;5112222;28;20043;-62
2023/06/04 06:06:00;;;;;;;11.63;3.85;;;13.70;99.90;;;;;;5101217;28;20075;-62
2023/06/04 06:08:26;;;;;;;10.52;4.00;;;13.80;99.90;;;;;;5093074;28;20505;-61
2023/06/04 06:10:51;;;;;;;9.23;3.80;;;13.90;99.90;;;;;;5114502;28;20040;-61
2023/06/04 06:13:17;;;;;;;8.13;3.13;;;14.00;99.90;;;;;;5095807;28;20047;-61
2023/06/04 06:15:43;;;;;;;6.80;2.97;;;14.10;99.90;;;;;;5115039;28;20043;-61
2023/06/04 06:18:09;;;;;;;8.07;2.92;;;14.10;99.90;;;;;;5102246;28;20370;-61
2023/06/04 06:20:34;;;;;;;8.02;2.92;;;14.20;99.90;;;;;;5106041;28;20039;-61
2023/06/04 06:23:07;;;;;;;9.10;3.17;;;14.20;99.90;;;;;;5096721;28;20035;-61
2023/06/04 06:25:33;;;;;;;10.25;3.30;;;14.20;99.90;;;;;;5109538;28;20035;-61
2023/06/04 06:27:58;;;;;;;6.70;2.60;;;14.30;99.90;;;;;;5093309;28;20477;-61
2023/06/04 06:30:24;;;;;;;7.22;2.50;;;14.40;99.90;;;;;;5092606;28;20488;-61
2023/06/04 06:32:50;;;;;;;6.30;3.00;;;14.30;99.90;;;;;;5109182;28;20047;-61
2023/06/04 06:35:17;;;;;;;7.95;2.50;;;14.40;99.90;;;;;;5094987;28;20040;-61
2023/06/04 06:37:43;;;;;;;9.88;3.65;;;14.40;99.90;;;;;;5101034;28;20043;-61
2023/06/04 06:40:10;;;;;;;10.30;2.85;;;14.50;99.90;;;;;;5112828;28;20126;-61
2023/06/04 06:42:36;;;;;;;7.32;2.90;;;14.60;99.90;;;;;;5115269;27;20047;-62
2023/06/04 06:45:02;;;;;;;7.78;2.40;;;14.60;99.90;;;;;;5113609;28;20048;-62
2023/06/04 06:47:27;;;;;;;5.10;2.25;;;14.70;99.90;;;;;;5113942;28;20039;-61
2023/06/04 06:49:54;;;;;;;8.88;2.58;;;14.80;99.90;;;;;;5114674;28;20135;-61
2023/06/04 06:52:20;;;;;;;5.45;2.05;;;14.80;99.90;;;;;;5113624;28;20042;-61
2023/06/04 06:54:46;;;;;;;7.28;2.00;;;14.80;99.90;;;;;;5112557;28;20035;-62
2023/06/04 06:57:12;;;;;;;7.65;2.40;;;14.80;99.90;;;;;;5114644;27;20048;-61
2023/06/04 06:59:38;;;;;;;5.05;2.00;;;14.90;99.90;;;;;;5113094;28;20047;-61
2023/06/04 07:02:06;;;;;;;6.68;2.45;;;15.00;99.90;;;;;;5112256;28;20036;-61
2023/06/04 07:04:31;;;;;;;6.82;2.38;;;15.00;99.90;;;;;;5114687;28;20419;-61
2023/06/04 07:06:57;;;;;;;8.60;2.08;;;15.10;99.90;;;;;;5112991;28;20043;-61
2023/06/04 07:09:23;;;;;;;7.78;2.58;;;15.10;99.90;;;;;;5113820;28;20057;-61
2023/06/04 07:11:48;;;;;;;8.07;2.17;;;15.20;99.90;;;;;;5095647;28;20519;-61
2023/06/04 07:14:14;;;;;;;8.02;2.53;;;15.30;99.90;;;;;;5095921;28;20051;-61
2023/06/04 07:16:40;;;;;;;8.48;2.10;;;15.40;99.90;;;;;;5113315;28;20043;-61
2023/06/04 07:19:05;;;;;;;11.43;2.35;;;15.40;99.90;;;;;;5113220;28;20098;-62
2023/06/04 07:21:31;;;;;;;4.55;2.00;;;15.40;99.90;;;;;;5112918;28;20043;-62
2023/06/04 07:23:57;;;;;;;6.60;2.20;;;15.40;99.90;;;;;;5112322;28;20044;-61
2023/06/04 07:26:26;;;;;;;5.05;1.70;;;15.50;99.90;;;;;;5112607;28;20498;-63
2023/06/04 07:28:55;;;;;;;6.05;2.50;;;15.60;99.90;;;;;;5112051;28;20122;-61
2023/06/04 07:31:20;;;;;;;7.60;2.33;;;15.60;99.90;;;;;;5104874;28;20050;-61
2023/06/04 07:33:46;;;;;;;5.03;1.90;;;15.60;99.90;;;;;;5093594;28;20036;-61
2023/06/04 07:36:16;;;;;;;8.00;2.83;;;15.70;99.90;;;;;;5092975;28;20040;-61
2023/06/04 07:38:42;;;;;;;4.90;1.75;;;15.70;99.90;;;;;;5092452;28;20079;-61
2023/06/04 07:41:08;;;;;;;5.25;2.05;;;15.80;99.90;;;;;;5078982;28;20046;-61
2023/06/04 07:43:35;;;;;;;5.50;1.83;;;15.80;99.90;;;;;;5111688;28;20039;-61
2023/06/04 07:46:04;;;;;;;7.43;2.60;;;15.80;99.90;;;;;;5103281;28;20085;-61
2023/06/04 07:48:30;;;;;;;6.03;2.20;;;15.80;99.90;;;;;;5093367;28;20134;-61
2023/06/04 07:51:01;;;;;;;8.93;2.35;;;15.80;99.90;;;;;;5092416;28;20138;-61
2023/06/04 07:53:26;;;;;;;6.05;2.00;;;15.80;99.90;;;;;;5095165;28;20404;-61
2023/06/04 07:55:53;;;;;;;5.95;1.63;;;15.90;99.90;;;;;;5111849;28;20048;-61
2023/06/04 07:58:19;;;;;;;5.68;2.10;;;16.10;99.90;;;;;;5111156;28;20502;-61
2023/06/04 08:00:45;;;;;;;9.32;2.33;;;16.20;99.90;;;;;;5112994;27;20471;-61
2023/06/04 08:03:10;;;;;;;9.45;2.97;;;16.20;99.90;;;;;;5113269;28;20039;-61
2023/06/04 08:05:36;;;;;;;5.88;1.95;;;16.20;99.90;;;;;;5111393;28;20039;-61
2023/06/04 08:08:03;;;;;;;5.93;1.98;;;16.20;99.90;;;;;;5113716;28;20039;-61
2023/06/04 08:10:29;;;;;;;5.82;2.05;;;16.20;99.90;;;;;;5111610;28;20043;-61
2023/06/04 08:12:55;;;;;;;5.32;2.10;;;16.20;99.90;;;;;;5112101;28;20048;-61
2023/06/04 08:15:21;;;;;;;6.85;2.10;;;16.30;99.90;;;;;;5106194;28;20051;-61
2023/06/04 08:17:47;;;;;;;5.97;1.80;;;16.40;99.90;;;;;;5091893;28;20055;-61
2023/06/04 08:20:31;;;;;;;6.68;2.22;;;16.40;99.90;;;;;;5097811;28;20061;-61
2023/06/04 08:22:56;;;;;;;11.38;2.38;;;16.40;99.90;;;;;;5112781;28;20119;-61
2023/06/04 08:25:22;;;;;;;6.60;2.08;;;16.50;99.90;;;;;;5098467;28;20493;-62
2023/06/04 08:27:48;;;;;;;5.78;2.00;;;16.60;99.90;;;;;;5092586;28;20123;-61
2023/06/04 08:30:14;;;;;;;7.70;2.53;;;16.60;99.90;;;;;;5092275;28;20123;-61
2023/06/04 08:32:40;;;;;;;7.80;2.53;;;16.60;99.90;;;;;;5090303;28;20123;-61
2023/06/04 08:35:07;;;;;;;6.10;2.30;;;16.60;99.90;;;;;;5108663;28;20031;-61
2023/06/04 08:37:32;;;;;;;4.93;1.90;;;16.70;99.90;;;;;;5091335;28;20051;-61
2023/06/04 08:39:58;;;;;;;5.22;2.40;;;16.70;99.90;;;;;;5092046;28;20085;-61
2023/06/04 08:42:33;;;;;;;6.25;2.03;;;16.70;99.90;;;;;;5102419;28;20100;-61
2023/06/04 08:44:59;;;;;;;7.30;2.00;;;16.60;99.90;;;;;;5119194;27;20052;-61
2023/06/04 08:47:26;;;;;;;6.97;2.63;;;16.60;99.90;;;;;;5106966;28;20028;-62
2023/06/04 08:49:54;;;;;;;7.22;1.80;;;16.60;99.90;;;;;;5099503;28;20040;-62
2023/06/04 08:52:22;;;;;;;5.47;1.73;;;16.70;99.90;;;;;;5110876;28;20040;-61
2023/06/04 08:54:50;;;;;;;4.75;1.63;;;16.80;99.90;;;;;;5110049;28;20546;-61
2023/06/04 08:57:18;;;;;;;4.80;1.70;;;16.80;99.90;;;;;;5109325;28;20039;-61
2023/06/04 08:59:46;;;;;;;8.40;2.05;;;16.80;99.90;;;;;;5107929;28;20035;-61
2023/06/04 09:02:13;;;;;;;4.95;1.60;;;16.80;99.90;;;;;;5100763;28;20371;-61
2023/06/04 09:04:40;;;;;;;4.88;1.92;;;16.80;99.90;;;;;;5106051;28;20508;-62
2023/06/04 09:07:08;;;;;;;5.18;2.20;;;16.80;99.90;;;;;;5094077;28;20038;-61
2023/06/04 09:09:38;;;;;;;4.85;1.77;;;16.70;99.90;;;;;;5107602;28;20036;-62
2023/06/04 09:12:08;;;;;;;7.85;2.20;;;16.70;99.90;;;;;;5099634;28;20093;-61
2023/06/04 09:14:34;;;;;;;6.88;2.00;;;16.90;99.90;;;;;;5110308;28;20051;-61
2023/06/04 09:17:00;;;;;;;4.97;2.03;;;17.00;99.90;;;;;;5109136;28;20050;-61
2023/06/04 09:19:25;;;;;;;5.53;1.90;;;17.10;99.90;;;;;;5090416;28;20066;-61
2023/06/04 09:21:56;;;;;;;4.60;1.80;;;17.20;99.90;;;;;;5072935;28;20145;-61
2023/06/04 09:24:23;;;;;;;4.35;1.50;;;17.20;99.90;;;;;;5098300;28;20055;-61
2023/06/04 09:26:49;;;;;;;5.32;1.60;;;17.10;99.90;;;;;;5110599;28;20035;-61
2023/06/04 09:29:15;;;;;;;4.65;1.80;;;17.00;99.90;;;;;;5110042;28;20042;-61
2023/06/04 09:31:44;;;;;;;4.43;1.70;;;17.10;99.90;;;;;;5110095;28;20035;-61
2023/06/04 09:34:10;;;;;;;5.63;1.83;;;17.10;99.90;;;;;;5099204;28;20122;-61
2023/06/04 09:36:36;;;;;;;7.50;1.92;;;17.00;99.90;;;;;;5089814;28;20131;-61
2023/06/04 09:39:23;;;;;;;9.77;1.92;;;17.00;99.90;;;;;;5098757;28;20043;-61
2023/06/04 09:42:02;;;;;;;5.47;2.00;;;17.00;99.90;;;;;;5110702;28;20040;-61
2023/06/04 09:44:31;;;;;;;6.13;2.15;;;16.90;99.90;;;;;;5091623;28;20086;-62
2023/06/04 09:46:57;;;;;;;4.80;1.88;;;17.00;99.90;;;;;;5094771;28;20113;-61
2023/06/04 09:49:23;;;;;;;4.78;1.80;;;17.20;99.90;;;;;;5093471;28;20071;-62
2023/06/04 09:51:49;;;;;;;5.45;2.10;;;17.20;99.90;;;;;;5100597;28;20063;-61
2023/06/04 09:54:15;;;;;;;7.00;2.65;;;17.30;99.90;;;;;;5114153;28;20035;-61
2023/06/04 09:56:42;;;;;;;4.90;1.90;;;17.30;99.90;;;;;;5113711;28;20123;-62
2023/06/04 09:59:09;;;;;;;4.85;2.10;;;17.20;99.90;;;;;;5114548;28;20040;-61
2023/06/04 10:01:40;;;;;;;5.47;1.80;;;17.20;99.90;;;;;;5115724;27;20104;-62
2023/06/04 10:04:08;;;;;;;6.22;2.13;;;17.10;99.90;;;;;;5099185;28;20522;-61
2023/06/04 10:06:36;;;;;;;7.82;2.90;;;17.10;99.90;;;;;;5113926;28;20047;-61
2023/06/04 10:09:07;;;;;;;5.35;2.38;;;17.10;99.90;;;;;;5109037;28;20123;-61
2023/06/04 10:11:36;;;;;;;7.47;2.45;;;17.20;99.90;;;;;;5092935;28;20040;-61
2023/06/04 10:14:13;;;;;;;4.80;1.88;;;17.20;99.90;;;;;;5077037;28;20134;-62
2023/06/04 10:16:41;;;;;;;5.63;1.77;;;17.40;99.90;;;;;;5093867;28;20044;-61
2023/06/04 10:19:07;;;;;;;5.00;1.92;;;17.40;99.90;;;;;;5100935;28;20361;-62
2023/06/04 10:21:37;;;;;;;6.78;2.25;;;17.40;99.90;;;;;;5115344;28;20385;-62
2023/06/04 10:24:03;;;;;;;4.68;2.28;;;17.40;99.90;;;;;;5114289;28;20514;-62
2023/06/04 10:26:30;;;;;;;3.72;1.55;;;17.50;99.90;;;;;;5096418;28;20043;-61
2023/06/04 10:28:57;;;;;;;4.18;1.65;;;17.50;99.90;;;;;;5096946;28;20109;-62
2023/06/04 10:31:23;;;;;;;5.88;2.05;;;17.50;99.90;;;;;;5113458;28;20051;-61
2023/06/04 10:33:54;;;;;;;5.50;1.92;;;17.50;99.90;;;;;;5108975;28;20469;-62
2023/06/04 10:36:21;;;;;;;4.60;1.60;;;17.50;99.90;;;;;;5103425;28;20043;-61
2023/06/04 10:38:54;;;;;;;4.50;1.67;;;17.50;99.90;;;;;;5114246;27;20050;-61
2023/06/04 10:41:21;;;;;;;5.15;1.80;;;17.50;99.90;;;;;;5109472;28;20039;-62
2023/06/04 10:43:49;;;;;;;6.43;2.00;;;17.60;99.90;;;;;;5104491;27;20500;-62
2023/06/04 10:46:17;;;;;;;5.28;2.15;;;17.70;99.90;;;;;;5109972;28;20044;-62
2023/06/04 10:48:53;;;;;;;4.90;1.90;;;17.70;99.90;;;;;;5114673;27;20050;-62
2023/06/04 10:51:32;;;;;;;8.40;2.35;;;17.70;99.90;;;;;;5097301;28;20046;-61
2023/06/04 10:53:59;;;;;;;5.50;1.98;;;17.70;99.90;;;;;;5093715;28;20044;-62
2023/06/04 10:56:31;;;;;;;6.22;2.10;;;17.80;99.90;;;;;;5092910;28;20055;-63
2023/06/04 10:59:12;;;;;;;4.97;2.28;;;17.80;99.90;;;;;;5095091;28;20044;-62
2023/06/04 11:01:38;;;;;;;5.35;1.90;;;17.80;99.90;;;;;;5108850;28;20092;-62
2023/06/04 11:04:04;;;;;;;5.47;1.67;;;17.80;99.90;;;;;;5114655;28;20046;-62
2023/06/04 11:06:30;;;;;;;6.32;2.17;;;17.90;99.90;;;;;;5112714;28;20043;-62
2023/06/04 11:09:05;;;;;;;4.47;1.90;;;17.90;99.80;;;;;;5112209;28;20423;-62
2023/06/04 11:11:31;;;;;;;5.00;1.95;;;17.90;99.90;;;;;;5112744;28;20476;-62
2023/06/04 11:14:12;;;;;;;6.55;2.03;;;17.90;99.90;;;;;;5112300;28;20427;-62
2023/06/04 11:16:38;;;;;;;5.13;1.80;;;17.90;99.90;;;;;;5114255;28;20046;-62
2023/06/04 11:19:04;;;;;;;5.47;2.08;;;18.00;99.90;;;;;;5113163;28;20488;-62
2023/06/04 11:21:33;;;;;;;3.88;1.73;;;18.10;99.90;;;;;;5113355;28;20069;-62
2023/06/04 11:23:59;;;;;;;6.95;1.98;;;18.10;99.90;;;;;;5106008;28;20477;-62
2023/06/04 11:26:36;;;;;;;4.30;1.80;;;18.10;99.90;;;;;;5100955;28;20089;-62
2023/06/04 11:29:07;;;;;;;5.43;2.00;;;18.10;99.90;;;;;;5099922;28;20032;-62
2023/06/04 11:31:46;;;;;;;7.30;1.70;;;18.10;99.90;;;;;;5110566;28;20055;-63
2023/06/04 11:34:22;;;;;;;4.40;2.03;;;18.20;99.90;;;;;;5094714;28;20089;-62
2023/06/04 11:36:49;;;;;;;5.50;2.00;;;18.30;99.70;;;;;;5093905;28;20043;-62
2023/06/04 11:39:15;;;;;;;5.30;1.80;;;18.40;99.90;;;;;;5097035;28;20044;-62
2023/06/04 11:41:42;;;;;;;6.00;2.25;;;18.50;99.80;;;;;;5103730;28;20044;-61
2023/06/04 11:44:08;;;;;;;4.75;1.73;;;18.50;99.80;;;;;;5110753;28;20081;-62
2023/06/04 11:46:35;;;;;;;4.63;1.65;;;18.60;99.90;;;;;;5109975;28;20122;-62
2023/06/04 11:49:02;;;;;;;5.13;1.92;;;18.60;99.50;;;;;;5109177;28;20039;-62
2023/06/04 11:51:28;;;;;;;8.13;1.80;;;18.40;99.10;;;;;;5110606;28;20035;-62
2023/06/04 11:53:55;;;;;;;5.22;1.80;;;18.40;99.00;;;;;;5110952;28;20122;-62
2023/06/04 11:56:23;;;;;;;4.30;2.00;;;18.40;99.00;;;;;;5095024;28;20048;-62
2023/06/04 11:58:49;;;;;;;4.53;1.88;;;18.30;98.70;;;;;;5109293;28;20579;-62
2023/06/04 12:01:15;;;;;;;5.30;1.92;;;18.30;98.90;;;;;;5102909;28;20123;-62
2023/06/04 12:03:42;;;;;;;3.38;1.50;;;18.40;99.70;;;;;;5088819;28;20076;-62
2023/06/04 12:06:15;;;;;;;4.63;1.63;;;18.40;99.40;;;;;;5084972;28;20058;-63
2023/06/04 12:08:55;;;;;;;4.63;1.50;;;18.40;99.70;;;;;;5109098;28;20047;-62
2023/06/04 12:11:31;;;;;;;5.30;2.28;;;18.40;99.10;;;;;;5099882;28;20039;-63
2023/06/04 12:13:58;;;;;;;4.70;1.55;;;18.50;99.60;;;;;;5090232;28;20044;-62
2023/06/04 12:16:25;;;;;;;5.85;1.55;;;18.50;99.40;;;;;;5092292;28;20093;-63
2023/06/04 12:18:51;;;;;;;5.85;1.75;;;18.50;98.80;;;;;;5103746;28;20051;-63
2023/06/04 12:21:19;;;;;;;5.47;1.70;;;18.50;98.90;;;;;;5109483;28;20042;-63
2023/06/04 12:23:45;;;;;;;3.60;1.30;;;18.40;98.50;;;;;;5110811;28;20051;-63
2023/06/04 12:26:29;;;;;;;3.83;1.70;;;18.40;98.90;;;;;;5109060;28;20044;-63
2023/06/04 12:29:02;;;;;;;5.00;1.70;;;18.50;98.40;;;;;;5110886;28;20083;-63
2023/06/04 12:31:31;;;;;;;3.80;1.50;;;18.30;98.50;;;;;;5108375;28;20050;-63
2023/06/04 12:33:58;;;;;;;6.53;1.85;;;18.30;98.50;;;;;;5109023;28;20051;-63
2023/06/04 12:36:24;;;;;;;5.28;1.67;;;18.40;98.80;;;;;;5109206;28;20043;-63
2023/06/04 12:38:50;;;;;;;5.00;1.95;;;18.50;98.80;;;;;;5108308;28;20185;-63
2023/06/04 12:41:16;;;;;;;4.30;1.70;;;18.40;98.10;;;;;;5110544;28;20088;-63
2023/06/04 12:43:41;;;;;;;4.93;1.83;;;18.40;98.40;;;;;;5109286;28;20087;-63
2023/06/04 12:46:07;;;;;;;5.85;2.17;;;18.40;98.60;;;;;;5108791;28;20566;-63
2023/06/04 12:48:33;;;;;;;5.10;1.73;;;18.50;98.20;;;;;;5109220;28;20048;-63